Time;durP1;ratioP1;P1;durP2;ratioP2;P2;SDS_P1;SDS_P2;PMS_P1;PMS_P2;Temp;Humidity;BMP_temperature;BMP_pressure;BME280_temperature;BME280_humidity;BME280_pressure;Samples;Min_cycle;Max_cycle;Signal;HPM_P1;HPM_P2
2022/03/25 00:01:31;;;;;;;7.12;5.20;;;;;;;-2.06;62.65;100289.66;1754600;82;21196;-82
2022/03/25 00:04:36;;;;;;;14.30;6.10;;;;;;;-2.11;62.98;100286.41;1754585;82;21691;-75
2022/03/25 00:07:41;;;;;;;10.80;5.20;;;;;;;-2.14;63.58;100287.45;1754544;82;21228;-83
2022/03/25 00:10:47;;;;;;;12.70;5.33;;;;;;;-2.11;64.04;100284.59;1753092;81;21181;-75
2022/03/25 00:13:52;;;;;;;11.35;5.30;;;;;;;-2.07;64.25;100277.19;1754630;82;21188;-81
2022/03/25 00:16:58;;;;;;;14.00;6.22;;;;;;;-2.03;64.30;100290.78;1753237;81;21236;-82
2022/03/25 00:20:04;;;;;;;14.78;5.60;;;;;;;-2.01;64.46;100286.20;1754647;82;21179;-82
2022/03/25 00:23:10;;;;;;;15.98;6.87;;;;;;;-1.98;64.44;100279.29;1754582;82;21224;-75
2022/03/25 00:26:15;;;;;;;13.58;5.70;;;;;;;-1.98;64.51;100271.25;1754618;82;21766;-75
2022/03/25 00:29:21;;;;;;;11.68;6.03;;;;;;;-1.99;64.57;100276.72;1754589;82;21164;-82
2022/03/25 00:32:27;;;;;;;15.40;6.97;;;;;;;-2.02;64.73;100275.11;1754699;80;21196;-75
2022/03/25 00:35:32;;;;;;;16.55;7.35;;;;;;;-2.05;65.08;100272.61;1750618;81;21806;-82
2022/03/25 00:38:38;;;;;;;10.60;5.05;;;;;;;-2.04;65.66;100278.34;1741419;82;21141;-83
2022/03/25 00:41:44;;;;;;;14.68;6.53;;;;;;;-2.06;65.93;100280.28;1741166;82;21232;-75
2022/03/25 00:44:50;;;;;;;20.68;6.78;;;;;;;-2.07;66.87;100271.83;1741302;82;21166;-82
2022/03/25 00:47:55;;;;;;;25.20;6.28;;;;;;;-2.09;67.08;100271.94;1741394;81;21738;-75
2022/03/25 00:51:02;;;;;;;11.78;5.65;;;;;;;-2.12;67.63;100268.58;1741391;82;21173;-82
2022/03/25 00:54:08;;;;;;;13.70;6.47;;;;;;;-2.13;68.08;100276.25;1741440;82;21265;-75
2022/03/25 00:57:16;;;;;;;14.70;6.22;;;;;;;-2.16;68.12;100273.78;1741379;82;21193;-82
2022/03/25 01:00:22;;;;;;;13.20;6.42;;;;;;;-2.18;68.25;100275.67;1741430;82;21145;-81
2022/03/25 01:03:22;;;;;;;12.05;4.62;;;;;;;-2.22;68.49;100279.50;1741485;81;21719;-82
2022/03/25 01:06:27;;;;;;;15.18;6.20;;;;;;;-2.26;68.91;100278.82;1741412;82;21300;-75
2022/03/25 01:09:33;;;;;;;15.93;6.45;;;;;;;-2.27;68.95;100274.91;1741421;82;21707;-82
2022/03/25 01:12:39;;;;;;;19.87;6.92;;;;;;;-2.29;69.15;100274.16;1740012;82;21201;-83
2022/03/25 01:15:45;;;;;;;13.03;6.47;;;;;;;-2.33;69.26;100281.52;1741511;82;21166;-75
2022/03/25 01:18:51;;;;;;;18.37;6.42;;;;;;;-2.36;69.40;100275.00;1740110;81;21724;-76
2022/03/25 01:21:58;;;;;;;17.45;7.20;;;;;;;-2.42;69.59;100274.91;1740987;82;21196;-75
2022/03/25 01:25:02;;;;;;;16.70;7.67;;;;;;;-2.44;69.73;100276.83;1741411;82;21486;-76
2022/03/25 01:28:08;;;;;;;16.50;7.72;;;;;;;-2.49;69.83;100273.58;1741282;82;21190;-75
2022/03/25 01:31:13;;;;;;;15.93;7.67;;;;;;;-2.51;70.11;100283.50;1741297;82;21746;-75
2022/03/25 01:34:12;;;;;;;16.55;7.97;;;;;;;-2.57;70.14;100285.23;1741653;81;21169;-75
2022/03/25 01:37:18;;;;;;;16.70;7.75;;;;;;;-2.61;70.21;100279.19;1748136;82;21177;-83
2022/03/25 01:40:24;;;;;;;16.87;7.45;;;;;;;-2.63;70.72;100293.16;1754769;82;21160;-75
2022/03/25 01:43:30;;;;;;;27.80;8.00;;;;;;;-2.65;70.89;100294.20;1754664;82;21161;-80
2022/03/25 01:46:36;;;;;;;18.45;7.67;;;;;;;-2.69;71.06;100292.17;1754612;82;21193;-82
2022/03/25 01:49:42;;;;;;;15.53;7.97;;;;;;;-2.72;71.35;100296.88;1754757;80;21232;-76
2022/03/25 01:52:41;;;;;;;16.32;7.30;;;;;;;-2.76;71.49;100289.50;1753857;82;21156;-82
2022/03/25 01:55:49;;;;;;;17.32;7.78;;;;;;;-2.78;71.77;100294.55;1754750;82;21699;-76
2022/03/25 01:58:55;;;;;;;17.52;7.80;;;;;;;-2.80;72.10;100295.13;1754695;82;21188;-82
2022/03/25 02:02:00;;;;;;;18.30;7.95;;;;;;;-2.83;72.37;100302.38;1754368;82;22119;-79
2022/03/25 02:05:07;;;;;;;18.62;8.63;;;;;;;-2.85;72.63;100302.95;1754615;80;21501;-82
2022/03/25 02:08:11;;;;;;;17.37;7.58;;;;;;;-2.88;72.92;100300.92;1754746;82;21217;-83
2022/03/25 02:11:18;;;;;;;21.00;8.98;;;;;;;-2.89;73.30;100305.91;1753212;81;21228;-82
2022/03/25 02:14:24;;;;;;;22.32;7.80;;;;;;;-2.91;73.43;100301.99;1754669;82;21679;-75
2022/03/25 02:17:31;;;;;;;14.33;7.37;;;;;;;-2.92;73.54;100297.56;1753329;81;21200;-75
2022/03/25 02:20:37;;;;;;;24.37;8.73;;;;;;;-2.93;73.74;100304.36;1754555;81;21500;-75
2022/03/25 02:23:45;;;;;;;16.65;7.67;;;;;;;-2.96;73.75;100301.41;1754634;82;21192;-82
2022/03/25 02:26:53;;;;;;;21.37;8.13;;;;;;;-3.00;73.83;100297.18;1754686;82;21741;-82
2022/03/25 02:29:59;;;;;;;18.25;8.70;;;;;;;-3.02;73.90;100296.39;1753370;81;21169;-75
2022/03/25 02:33:04;;;;;;;16.17;8.18;;;;;;;-3.03;73.88;100299.17;1754591;82;21168;-83
2022/03/25 02:36:11;;;;;;;16.05;7.37;;;;;;;-3.05;73.97;100307.30;1754594;80;21180;-75
2022/03/25 02:39:20;;;;;;;14.43;7.55;;;;;;;-3.08;74.39;100304.79;1740189;82;21232;-82
2022/03/25 02:42:25;;;;;;;27.15;8.73;;;;;;;-3.13;74.90;100306.39;1741409;82;21233;-82
2022/03/25 02:45:31;;;;;;;18.37;8.05;;;;;;;-3.16;75.08;100307.05;1741385;82;21157;-76
2022/03/25 02:48:36;;;;;;;19.15;7.80;;;;;;;-3.20;75.17;100300.14;1741431;82;22117;-76
2022/03/25 02:51:35;;;;;;;23.80;8.03;;;;;;;-3.23;75.29;100307.89;1741296;81;21171;-82
2022/03/25 02:54:42;;;;;;;17.20;8.58;;;;;;;-3.26;75.24;100305.86;1741259;82;21150;-82
2022/03/25 02:57:48;;;;;;;19.10;8.05;;;;;;;-3.30;75.34;100310.52;1740462;82;21220;-76
2022/03/25 03:00:55;;;;;;;23.27;8.13;;;;;;;-3.31;75.64;100309.27;1752210;81;21719;-75
2022/03/25 03:04:02;;;;;;;20.65;9.15;;;;;;;-3.35;75.76;100308.10;1741343;82;21770;-75
2022/03/25 03:07:08;;;;;;;22.52;8.83;;;;;;;-3.38;75.83;100312.31;1741088;81;21185;-75
2022/03/25 03:10:13;;;;;;;31.33;9.23;;;;;;;-3.40;75.82;100327.56;1741576;82;21683;-76
2022/03/25 03:13:20;;;;;;;19.10;8.83;;;;;;;-3.44;75.92;100323.34;1741290;82;21187;-75
2022/03/25 03:16:25;;;;;;;17.67;9.50;;;;;;;-3.47;75.90;100326.20;1741320;82;21244;-81
2022/03/25 03:19:31;;;;;;;19.95;9.35;;;;;;;-3.49;75.98;100329.42;1741429;82;21738;-75
2022/03/25 03:22:37;;;;;;;18.05;8.45;;;;;;;-3.52;76.25;100326.95;1740000;82;21204;-75
2022/03/25 03:25:42;;;;;;;21.35;9.55;;;;;;;-3.54;76.54;100331.50;1741308;82;21151;-75
2022/03/25 03:28:49;;;;;;;20.82;8.63;;;;;;;-3.57;76.65;100335.70;1741395;82;21699;-78
2022/03/25 03:31:55;;;;;;;23.98;9.85;;;;;;;-3.61;77.13;100330.99;1741356;82;21197;-82
2022/03/25 03:35:01;;;;;;;17.77;8.63;;;;;;;-3.63;77.70;100332.88;1741355;82;21141;-76
2022/03/25 03:38:09;;;;;;;22.52;8.65;;;;;;;-3.64;77.95;100331.16;1741502;82;21217;-75
2022/03/25 03:41:14;;;;;;;30.12;8.85;;;;;;;-3.65;78.03;100337.94;1741365;82;21189;-82
2022/03/25 03:44:23;;;;;;;27.17;9.93;;;;;;;-3.63;77.96;100341.38;1741383;82;21161;-75
2022/03/25 03:47:30;;;;;;;15.80;8.43;;;;;;;-3.65;77.93;100350.83;1741328;82;21173;-75
2022/03/25 03:50:35;;;;;;;21.57;8.48;;;;;;;-3.65;78.03;100350.83;1741321;81;21162;-82
2022/03/25 03:53:40;;;;;;;18.92;9.60;;;;;;;-3.64;78.27;100355.22;1741328;82;21174;-75
2022/03/25 03:56:47;;;;;;;17.95;8.60;;;;;;;-3.63;78.40;100349.39;1741368;82;21213;-82
2022/03/25 03:59:52;;;;;;;17.35;8.33;;;;;;;-3.61;78.33;100352.38;1741407;82;21759;-81
2022/03/25 04:03:00;;;;;;;18.37;8.45;;;;;;;-3.58;78.42;100354.48;1741384;82;21197;-82
2022/03/25 04:06:06;;;;;;;23.38;8.95;;;;;;;-3.53;78.61;100353.75;1741374;81;21138;-75
2022/03/25 04:09:12;;;;;;;22.02;9.00;;;;;;;-3.48;78.73;100361.03;1739863;82;21165;-75
2022/03/25 04:12:17;;;;;;;20.68;8.45;;;;;;;-3.42;78.81;100361.58;1741302;82;21195;-82
2022/03/25 04:15:23;;;;;;;20.50;8.00;;;;;;;-3.33;78.92;100361.53;1740008;82;21161;-82
2022/03/25 04:18:29;;;;;;;19.90;9.45;;;;;;;-3.23;79.02;100364.55;1741310;82;21186;-75
2022/03/25 04:21:35;;;;;;;22.98;8.43;;;;;;;-3.12;79.06;100376.83;1741312;81;21197;-75
2022/03/25 04:24:41;;;;;;;16.67;8.68;;;;;;;-3.02;78.99;100373.14;1739849;82;21154;-75
2022/03/25 04:28:05;;;;;;;18.82;9.35;;;;;;;-2.93;78.89;100373.47;1741285;82;21193;-81
2022/03/25 04:31:09;;;;;;;19.55;8.58;;;;;;;-2.83;79.12;100381.83;1741323;82;21200;-75
2022/03/25 04:34:14;;;;;;;14.63;8.48;;;;;;;-2.75;79.23;100376.89;1741327;82;21833;-75
2022/03/25 04:37:20;;;;;;;20.27;8.15;;;;;;;-2.65;79.31;100385.25;1741246;81;21181;-78
2022/03/25 04:40:28;;;;;;;15.85;7.90;;;;;;;-2.52;79.50;100386.73;1747548;82;21188;-75
2022/03/25 04:43:34;;;;;;;24.85;9.23;;;;;;;-2.38;79.41;100395.66;1753215;82;21156;-75
2022/03/25 04:46:38;;;;;;;15.32;8.50;;;;;;;-2.22;79.28;100394.73;1754676;82;21168;-75
2022/03/25 04:49:46;;;;;;;17.82;8.65;;;;;;;-2.07;78.98;100399.14;1754542;82;21165;-75
2022/03/25 04:52:46;;;;;;;20.52;9.53;;;;;;;-1.95;78.72;100399.74;1754576;80;21196;-82
2022/03/25 04:55:51;;;;;;;18.27;9.58;;;;;;;-1.81;78.18;100405.11;1754595;82;21161;-82
2022/03/25 04:58:57;;;;;;;15.38;7.50;;;;;;;-1.69;77.92;100402.64;1753190;82;21153;-76
2022/03/25 05:02:03;;;;;;;16.77;8.78;;;;;;;-1.59;77.69;100399.77;1754061;82;21725;-82
2022/03/25 05:05:12;;;;;;;17.65;8.35;;;;;;;-1.48;77.28;100405.30;1753498;82;21745;-82
2022/03/25 05:08:18;;;;;;;16.70;7.65;;;;;;;-1.38;76.87;100403.75;1753048;80;21208;-79
2022/03/25 05:11:23;;;;;;;16.25;8.23;;;;;;;-1.25;76.96;100405.66;1754406;82;21160;-82
2022/03/25 05:14:30;;;;;;;21.12;8.43;;;;;;;-1.12;76.59;100412.81;1753275;81;21188;-82
2022/03/25 05:17:36;;;;;;;16.30;7.80;;;;;;;-0.99;76.13;100414.20;1753072;82;21757;-75
2022/03/25 05:20:43;;;;;;;12.78;7.12;;;;;;;-0.86;75.91;100416.95;1753255;81;21240;-82
2022/03/25 05:23:49;;;;;;;17.80;7.03;;;;;;;-0.70;75.62;100410.11;1753646;80;21206;-83
2022/03/25 05:26:56;;;;;;;15.53;7.20;;;;;;;-0.54;74.96;100416.16;1754149;82;21228;-76
2022/03/25 05:30:04;;;;;;;20.23;7.70;;;;;;;-0.37;74.32;100413.69;1754496;82;21204;-82
2022/03/25 05:33:10;;;;;;;19.77;6.95;;;;;;;-0.19;73.73;100415.58;1753226;82;21809;-82
2022/03/25 05:36:16;;;;;;;15.70;7.45;;;;;;;0.00;73.44;100420.09;1753232;82;21231;-75
2022/03/25 05:39:22;;;;;;;15.03;7.12;;;;;;;0.20;72.54;100424.09;1753365;80;21185;-75
2022/03/25 05:42:28;;;;;;;17.12;6.50;;;;;;;0.38;71.78;100428.66;1752678;82;21164;-75
2022/03/25 05:45:35;;;;;;;11.95;6.08;;;;;;;0.58;70.79;100438.00;1753687;82;21157;-82
2022/03/25 05:48:42;;;;;;;14.35;5.87;;;;;;;0.74;69.98;100430.05;1754616;82;21161;-75
2022/03/25 05:51:49;;;;;;;14.73;7.00;;;;;;;0.92;68.87;100435.08;1754523;82;21773;-82
2022/03/25 05:54:55;;;;;;;13.78;6.03;;;;;;;1.10;68.58;100435.08;1754534;80;21284;-82
2022/03/25 05:58:02;;;;;;;10.72;5.80;;;;;;;1.28;67.40;100444.50;1754191;82;21243;-76
2022/03/25 06:01:09;;;;;;;18.10;5.75;;;;;;;1.43;66.93;100447.03;1753817;82;21153;-76
2022/03/25 06:04:17;;;;;;;12.58;6.72;;;;;;;1.62;66.12;100452.77;1756085;80;21198;-81
2022/03/25 06:07:24;;;;;;;12.78;5.70;;;;;;;1.77;65.67;100451.59;1762403;80;21145;-76
2022/03/25 06:10:25;;;;;;;15.30;5.95;;;;;;;1.93;64.89;100449.95;1771638;80;21149;-82
2022/03/25 06:13:18;;;;;;;16.52;6.42;;;;;;;2.10;64.79;100460.78;1738293;82;21207;-82
2022/03/25 06:16:23;;;;;;;13.43;7.03;;;;;;;2.25;63.84;100456.02;1726488;81;21265;-76
2022/03/25 06:19:30;;;;;;;12.53;5.97;;;;;;;2.40;63.86;100460.70;1698674;83;21155;-82
2022/03/25 06:22:39;;;;;;;13.22;5.00;;;;;;;2.58;63.48;100459.27;1698470;84;21863;-82
2022/03/25 06:25:44;;;;;;;10.93;5.60;;;;;;;2.78;63.27;100458.55;1697760;84;21259;-82
2022/03/25 06:28:51;;;;;;;14.65;5.83;;;;;;;3.01;62.41;100462.57;1697859;84;21211;-76
2022/03/25 06:31:56;;;;;;;13.60;4.70;;;;;;;3.18;61.80;100462.56;1698617;83;21191;-76
2022/03/25 06:35:03;;;;;;;13.45;5.40;;;;;;;3.36;60.90;100473.72;1698867;84;21746;-82
2022/03/25 06:38:08;;;;;;;12.82;5.05;;;;;;;3.47;59.96;100468.27;1715559;83;21815;-76
2022/03/25 06:41:14;;;;;;;11.57;4.92;;;;;;;3.57;59.95;100478.20;1716938;83;21179;-75
2022/03/25 06:44:21;;;;;;;12.53;4.67;;;;;;;3.71;59.57;100474.34;1709546;84;21232;-77
2022/03/25 06:47:27;;;;;;;8.08;4.15;;;;;;;3.90;58.41;100486.33;1683904;84;22087;-76
2022/03/25 06:50:33;;;;;;;13.68;4.12;;;;;;;4.06;57.75;100482.20;1712522;82;21731;-76
2022/03/25 06:53:39;;;;;;;13.55;4.40;;;;;;;4.20;56.69;100491.86;1735936;82;21220;-82
2022/03/25 06:56:45;;;;;;;9.78;3.87;;;;;;;4.30;56.52;100487.38;1736404;82;21200;-76
2022/03/25 06:59:52;;;;;;;14.13;3.35;;;;;;;4.51;56.55;100492.77;1737355;82;21204;-82
2022/03/25 07:02:58;;;;;;;10.23;3.50;;;;;;;4.69;55.32;100497.59;1704751;83;21199;-76
2022/03/25 07:06:05;;;;;;;7.83;3.87;;;;;;;4.83;53.98;100502.16;1706879;82;21203;-83
2022/03/25 07:09:11;;;;;;;6.95;2.87;;;;;;;4.90;53.13;100505.70;1714150;83;21714;-83
2022/03/25 07:12:18;;;;;;;7.12;3.83;;;;;;;4.92;52.81;100504.56;1730146;82;21728;-83
2022/03/25 07:15:24;;;;;;;10.75;3.17;;;;;;;5.01;53.06;100505.61;1720648;83;21178;-76
2022/03/25 07:18:28;;;;;;;12.20;4.17;;;;;;;5.12;52.85;100514.99;1721267;83;21220;-83
2022/03/25 07:21:34;;;;;;;7.17;3.20;;;;;;;5.24;52.09;100515.27;1721431;83;21777;-83
2022/03/25 07:24:41;;;;;;;11.00;4.10;;;;;;;5.33;51.91;100519.88;1699584;83;21204;-76
2022/03/25 07:27:48;;;;;;;9.15;3.45;;;;;;;5.43;51.13;100510.91;1719824;83;21892;-83
2022/03/25 07:30:54;;;;;;;15.93;3.95;;;;;;;5.52;51.25;100516.86;1720461;83;21177;-84
2022/03/25 07:34:00;;;;;;;8.80;4.20;;;;;;;5.59;50.32;100518.86;1717226;83;21709;-83
2022/03/25 07:37:06;;;;;;;14.73;3.10;;;;;;;5.61;50.61;100516.88;1716544;83;21845;-75
2022/03/25 07:40:12;;;;;;;18.02;5.00;;;;;;;5.68;50.30;100520.38;1719497;82;21220;-75
2022/03/25 07:43:20;;;;;;;8.60;3.42;;;;;;;5.73;50.21;100512.17;1716145;82;21205;-83
2022/03/25 07:46:27;;;;;;;13.45;3.40;;;;;;;5.80;49.21;100525.56;1727176;82;21992;-76
2022/03/25 07:49:34;;;;;;;15.18;3.72;;;;;;;5.79;49.46;100523.00;1735890;81;21644;-76
2022/03/25 07:52:39;;;;;;;11.78;4.78;;;;;;;5.81;49.17;100523.20;1738096;82;21515;-76
2022/03/25 07:55:50;;;;;;;8.60;4.22;;;;;;;5.84;49.35;100520.21;1721361;82;22136;-83
2022/03/25 07:58:43;;;;;;;8.78;4.37;;;;;;;5.88;49.30;100523.01;1723716;81;21229;-76
2022/03/25 08:01:48;;;;;;;17.12;4.60;;;;;;;5.96;49.19;100512.81;1722424;83;21189;-83
2022/03/25 08:04:56;;;;;;;12.90;4.92;;;;;;;6.05;48.90;100527.40;1724510;83;21698;-76
2022/03/25 08:07:56;;;;;;;15.03;5.60;;;;;;;6.11;49.05;100520.03;1718219;83;21216;-76
2022/03/25 08:10:49;;;;;;;10.38;5.12;;;;;;;6.21;48.44;100522.28;1738033;81;21197;-76
2022/03/25 08:13:56;;;;;;;11.43;4.87;;;;;;;6.27;48.52;100514.91;1741007;81;21189;-76
2022/03/25 08:17:02;;;;;;;12.30;4.83;;;;;;;6.33;48.28;100519.75;1716910;83;21265;-83
2022/03/25 08:20:08;;;;;;;14.43;4.85;;;;;;;6.38;47.57;100517.45;1722976;83;21189;-75
2022/03/25 08:29:55;;;;;;;15.05;4.03;;;;;;;6.63;46.78;100532.80;1694133;82;21165;-83
2022/03/25 08:33:00;;;;;;;15.90;4.25;;;;;;;6.74;46.12;100533.16;1681842;85;21216;-76
2022/03/25 08:36:07;;;;;;;17.12;4.28;;;;;;;6.78;45.83;100521.84;1704387;83;21220;-75
2022/03/25 08:39:13;;;;;;;10.58;4.25;;;;;;;6.80;46.30;100515.74;1736555;82;21537;-76
2022/03/25 08:42:19;;;;;;;21.25;4.05;;;;;;;6.89;46.01;100512.14;1721498;81;21190;-83
2022/03/25 08:45:24;;;;;;;15.18;4.03;;;;;;;6.97;45.13;100521.44;1747252;81;21776;-83
2022/03/25 08:48:30;;;;;;;17.17;5.42;;;;;;;7.05;44.64;100515.59;1744595;81;21196;-83
2022/03/25 08:51:36;;;;;;;14.13;4.60;;;;;;;7.11;44.54;100511.44;1738799;82;21187;-76
2022/03/25 08:54:41;;;;;;;15.75;3.62;;;;;;;7.13;44.53;100503.97;1719038;83;21237;-76
2022/03/25 08:57:46;;;;;;;19.40;3.87;;;;;;;7.19;43.87;100507.45;1749827;81;21738;-82
2022/03/25 09:00:52;;;;;;;24.32;4.08;;;;;;;7.24;43.45;100503.77;1748857;81;21144;-82
2022/03/25 09:03:58;;;;;;;18.40;4.47;;;;;;;7.27;43.22;100508.06;1742418;81;21298;-83
2022/03/25 09:07:05;;;;;;;18.35;4.45;;;;;;;7.29;43.67;100506.04;1752036;81;21188;-82
2022/03/25 09:10:14;;;;;;;26.50;4.55;;;;;;;7.28;43.15;100505.19;1747196;81;21177;-83
2022/03/25 09:13:21;;;;;;;18.23;4.10;;;;;;;7.32;43.11;100497.59;1741764;81;21477;-76
2022/03/25 09:16:25;;;;;;;23.77;4.65;;;;;;;7.36;42.33;100495.77;1740590;81;22164;-82
2022/03/25 09:19:32;;;;;;;16.00;4.17;;;;;;;7.48;42.26;100494.20;1736450;81;21758;-82
2022/03/25 09:22:38;;;;;;;31.48;4.58;;;;;;;7.62;41.81;100500.48;1716561;83;21221;-83
2022/03/25 09:25:44;;;;;;;17.15;4.05;;;;;;;7.75;41.64;100496.90;1740344;81;21164;-82
2022/03/25 09:28:50;;;;;;;21.42;4.72;;;;;;;7.85;40.94;100509.09;1737259;81;21674;-82
2022/03/25 09:31:57;;;;;;;13.53;4.25;;;;;;;7.90;40.16;100502.19;1723733;83;21214;-83
2022/03/25 09:35:11;;;;;;;18.57;4.50;;;;;;;7.87;40.33;100501.64;1716919;83;21732;-76
2022/03/25 09:38:15;;;;;;;18.10;4.42;;;;;;;7.88;40.42;100494.66;1747409;81;21184;-76
2022/03/25 09:41:22;;;;;;;19.57;4.22;;;;;;;8.03;40.43;100503.15;1746717;81;21180;-75
2022/03/25 09:44:27;;;;;;;26.33;4.20;;;;;;;8.11;39.68;100497.78;1750807;81;21173;-83
2022/03/25 09:47:33;;;;;;;20.95;4.78;;;;;;;8.14;39.18;100503.45;1744841;81;21201;-76
2022/03/25 09:50:40;;;;;;;27.20;3.87;;;;;;;8.17;38.86;100505.33;1726880;81;21751;-77
2022/03/25 09:53:47;;;;;;;17.12;3.65;;;;;;;8.20;39.16;100506.39;1727436;81;21158;-83
2022/03/25 09:56:52;;;;;;;17.12;3.95;;;;;;;8.30;37.88;100503.58;1732879;81;21233;-82
2022/03/25 09:59:59;;;;;;;28.12;4.37;;;;;;;8.39;38.36;100500.45;1728800;81;21212;-83
2022/03/25 10:03:03;;;;;;;17.92;3.33;;;;;;;8.41;37.77;100500.63;1727663;81;22132;-76
2022/03/25 10:06:13;;;;;;;19.42;3.67;;;;;;;8.44;37.74;100489.93;1743376;81;21176;-75
2022/03/25 10:09:21;;;;;;;16.85;3.50;;;;;;;8.44;37.61;100494.87;1713747;81;21223;-80
2022/03/25 10:12:31;;;;;;;24.65;3.65;;;;;;;8.44;37.62;100490.78;1715811;81;21185;-76
2022/03/25 10:15:40;;;;;;;16.97;3.98;;;;;;;8.49;37.65;100501.73;1740863;81;21525;-77
2022/03/25 10:18:48;;;;;;;19.80;3.25;;;;;;;8.52;36.80;100510.45;1722243;82;21759;-83
2022/03/25 10:22:08;;;;;;;13.43;4.20;;;;;;;8.55;36.17;100498.36;1703214;81;21562;-83
2022/03/25 10:25:15;;;;;;;17.67;4.30;;;;;;;8.54;36.45;100493.92;1712354;82;21166;-76
2022/03/25 10:28:39;;;;;;;16.12;3.98;;;;;;;8.54;36.62;100501.59;1710356;82;21206;-82
2022/03/25 10:31:42;;;;;;;13.85;4.30;;;;;;;8.61;36.79;100484.08;1713481;83;21249;-83
2022/03/25 10:34:49;;;;;;;11.20;3.92;;;;;;;8.65;36.07;100481.38;1739789;81;21232;-76
2022/03/25 10:38:05;;;;;;;13.35;4.10;;;;;;;8.65;36.93;100485.47;1747690;81;21236;-78
2022/03/25 10:41:11;;;;;;;17.75;4.87;;;;;;;8.77;36.91;100486.94;1743739;81;21208;-83
2022/03/25 10:44:18;;;;;;;17.48;4.10;;;;;;;8.88;36.62;100477.11;1740706;81;21204;-76
2022/03/25 10:47:28;;;;;;;16.65;4.58;;;;;;;8.91;35.80;100489.07;1715584;83;21217;-83
2022/03/25 10:50:34;;;;;;;15.13;4.33;;;;;;;8.88;35.97;100481.20;1756336;81;21190;-83
2022/03/25 10:53:47;;;;;;;14.07;4.72;;;;;;;8.87;36.12;100474.55;1758517;79;21158;-83
2022/03/25 10:57:02;;;;;;;26.00;5.03;;;;;;;8.93;35.77;100480.71;1758872;81;21153;-75
2022/03/25 11:00:08;;;;;;;15.70;4.50;;;;;;;8.93;35.69;100477.47;1753250;81;21196;-76
2022/03/25 11:03:14;;;;;;;25.80;7.40;;;;;;;8.91;35.46;100477.30;1738447;81;21220;-83
2022/03/25 11:06:21;;;;;;;20.10;5.05;;;;;;;8.92;36.16;100479.86;1679801;83;21532;-77
2022/03/25 11:09:21;;;;;;;20.30;6.30;;;;;;;9.03;35.92;100475.14;1722272;82;21252;-76
2022/03/25 11:12:15;;;;;;;15.70;4.90;;;;;;;9.08;35.80;100476.39;1722979;83;21197;-83
2022/03/25 11:15:26;;;;;;;14.53;4.95;;;;;;;9.16;35.83;100479.65;1690506;82;21216;-83
2022/03/25 11:18:27;;;;;;;19.77;5.33;;;;;;;9.21;35.38;100475.91;1759115;81;21208;-83
2022/03/25 11:21:32;;;;;;;17.67;5.40;;;;;;;9.20;35.26;100472.84;1727907;83;21239;-76
2022/03/25 11:24:42;;;;;;;18.75;6.22;;;;;;;9.20;35.13;100468.75;1728060;83;21188;-76
2022/03/25 11:27:48;;;;;;;22.67;6.27;;;;;;;9.22;34.94;100461.25;1728977;83;21769;-84
2022/03/25 11:30:41;;;;;;;21.35;5.92;;;;;;;9.20;34.69;100461.93;1728237;81;21188;-76
2022/03/25 11:34:16;;;;;;;26.03;6.20;;;;;;;9.18;34.50;100457.16;1727713;81;21169;-77
2022/03/25 11:37:34;;;;;;;13.70;5.60;;;;;;;9.20;34.62;100461.93;1727269;83;21187;-84
2022/03/25 11:40:42;;;;;;;18.90;5.60;;;;;;;9.31;34.36;100464.35;1727254;83;21238;-84
2022/03/25 11:43:48;;;;;;;13.15;6.17;;;;;;;9.34;34.21;100461.31;1727848;83;21242;-84
2022/03/25 11:47:13;;;;;;;14.93;6.15;;;;;;;9.34;34.07;100451.75;1728524;83;21206;-83
2022/03/25 11:50:41;;;;;;;19.77;6.62;;;;;;;9.32;34.01;100457.91;1710160;82;21172;-76
2022/03/25 11:53:49;;;;;;;15.08;5.72;;;;;;;9.32;34.02;100444.25;1718129;83;21163;-78
2022/03/25 11:56:55;;;;;;;16.15;5.25;;;;;;;9.35;33.91;100452.09;1717574;83;21206;-77
2022/03/25 12:00:04;;;;;;;26.10;6.75;;;;;;;9.45;34.26;100460.14;1717270;83;21239;-83
2022/03/25 12:03:13;;;;;;;18.07;5.67;;;;;;;9.54;33.36;100450.11;1717842;83;21230;-83
2022/03/25 12:06:18;;;;;;;15.58;4.97;;;;;;;9.55;33.21;100459.52;1718040;83;21700;-76
2022/03/25 12:09:25;;;;;;;8.95;4.80;;;;;;;9.56;32.57;100454.91;1718068;83;21167;-76
2022/03/25 12:12:40;;;;;;;22.55;5.70;;;;;;;9.54;32.14;100461.88;1717904;83;21205;-83
2022/03/25 12:15:52;;;;;;;14.78;6.15;;;;;;;9.52;32.28;100453.53;1717923;83;21199;-83
2022/03/25 12:19:00;;;;;;;14.75;5.78;;;;;;;9.46;32.19;100443.62;1717788;82;21223;-83
2022/03/25 12:22:10;;;;;;;12.90;6.03;;;;;;;9.53;32.72;100449.77;1717457;83;21187;-76
2022/03/25 12:25:22;;;;;;;19.80;6.33;;;;;;;9.64;31.85;100457.13;1717924;83;21175;-77
2022/03/25 12:28:32;;;;;;;21.15;5.85;;;;;;;9.73;31.33;100460.73;1717868;83;21198;-76
2022/03/25 12:31:39;;;;;;;33.35;6.47;;;;;;;9.75;30.71;100449.66;1717854;83;21175;-83
2022/03/25 12:35:16;;;;;;;20.82;6.10;;;;;;;9.70;30.98;100451.53;1731831;82;21112;-76
2022/03/25 12:38:38;;;;;;;11.70;5.70;;;;;;;9.67;30.83;100452.70;1707927;84;21304;-83
2022/03/25 12:41:46;;;;;;;10.20;5.95;;;;;;;9.73;30.28;100460.22;1706410;84;21233;-82
2022/03/25 12:45:01;;;;;;;9.48;5.58;;;;;;;9.74;30.28;100455.64;1707960;84;21177;-76
2022/03/25 12:48:27;;;;;;;14.35;6.78;;;;;;;9.72;30.54;100449.47;1711643;82;21209;-83
2022/03/25 12:51:34;;;;;;;19.98;7.55;;;;;;;9.68;30.11;100456.29;1721965;83;21743;-83
2022/03/25 12:54:41;;;;;;;12.80;5.87;;;;;;;9.71;30.19;100460.06;1716018;83;21174;-76
2022/03/25 12:57:48;;;;;;;14.95;7.47;;;;;;;9.74;30.28;100454.28;1715687;83;21188;-84
2022/03/25 13:00:58;;;;;;;14.90;6.95;;;;;;;9.73;30.42;100456.64;1714184;83;21201;-84
2022/03/25 13:04:01;;;;;;;14.75;7.47;;;;;;;9.75;30.28;100451.88;1692747;84;21179;-76
2022/03/25 13:06:57;;;;;;;16.42;8.70;;;;;;;9.81;30.51;100450.35;1684932;84;21185;-76
2022/03/25 13:09:54;;;;;;;17.60;8.65;;;;;;;9.83;30.47;100453.24;1717474;83;21172;-76
2022/03/25 13:12:55;;;;;;;13.50;8.98;;;;;;;9.86;29.99;100450.70;1717128;82;21218;-83
2022/03/25 13:16:08;;;;;;;25.05;9.03;;;;;;;9.85;29.73;100463.51;1687829;85;21257;-83
2022/03/25 13:19:16;;;;;;;20.23;8.43;;;;;;;9.81;29.74;100449.84;1687063;84;21811;-83
2022/03/25 13:22:28;;;;;;;13.20;7.47;;;;;;;9.75;29.92;100443.69;1693347;84;21184;-83
2022/03/25 13:25:44;;;;;;;16.07;7.80;;;;;;;9.73;30.40;100453.39;1692745;84;21191;-76
2022/03/25 13:28:53;;;;;;;19.15;8.05;;;;;;;9.78;30.43;100452.89;1695762;84;21172;-82
2022/03/25 13:32:15;;;;;;;24.72;8.18;;;;;;;9.88;29.69;100456.83;1694067;84;21204;-82
2022/03/25 13:35:25;;;;;;;;;;;;;;;9.88;29.68;100470.02;1698293;84;21192;-75
2022/03/25 13:38:47;;;;;;;18.05;9.85;;;;;;;9.88;29.77;100454.98;1695546;84;20209;-80
2022/03/25 13:41:55;;;;;;;18.60;9.60;;;;;;;9.88;28.98;100462.30;1695286;84;21208;-76
2022/03/25 13:45:16;;;;;;;21.45;10.50;;;;;;;9.86;28.85;100455.65;1695801;84;21698;-76
2022/03/25 13:48:22;;;;;;;20.70;10.18;;;;;;;9.85;28.85;100455.83;1676918;84;21243;-83
2022/03/25 13:51:40;;;;;;;16.87;9.33;;;;;;;9.82;29.44;100457.00;1686329;83;21181;-82
2022/03/25 13:54:46;;;;;;;15.32;9.03;;;;;;;9.82;28.89;100450.69;1685629;85;21193;-77
2022/03/25 13:58:04;;;;;;;15.10;9.18;;;;;;;9.81;28.49;100458.03;1685792;85;21213;-83
2022/03/25 14:01:10;;;;;;;15.53;9.70;;;;;;;9.79;28.34;100458.72;1685755;85;21204;-76
2022/03/25 14:04:21;;;;;;;15.63;9.50;;;;;;;9.75;28.72;100454.61;1685889;85;22149;-82
2022/03/25 14:07:28;;;;;;;20.08;10.28;;;;;;;9.75;28.42;100455.98;1685902;83;21215;-76
2022/03/25 14:10:36;;;;;;;19.12;10.35;;;;;;;9.71;28.47;100454.09;1685959;85;21232;-76
2022/03/25 14:13:42;;;;;;;22.50;10.65;;;;;;;9.67;28.67;100448.61;1730671;83;21164;-77
2022/03/25 14:17:01;;;;;;;21.70;10.88;;;;;;;9.66;28.79;100452.88;1729376;82;21180;-76
2022/03/25 14:20:20;;;;;;;16.30;9.20;;;;;;;9.63;28.67;100445.86;1729298;82;21580;-76
2022/03/25 14:23:27;;;;;;;15.50;9.90;;;;;;;9.62;28.58;100459.70;1730672;83;21200;-77
2022/03/25 14:26:32;;;;;;;18.00;9.60;;;;;;;9.59;28.31;100454.05;1730436;83;21765;-83
2022/03/25 14:29:38;;;;;;;18.20;9.03;;;;;;;9.57;28.23;100452.52;1728580;82;21187;-83
2022/03/25 14:32:45;;;;;;;15.03;8.60;;;;;;;9.54;28.14;100461.03;1728621;83;21200;-82